sensor_id;sensor_type;location;lat;lon;timestamp;P1;durP1;ratioP1;P2;durP2;ratioP2
1390;SDS011;690;51.454;7.194;2023-01-31T00:01:33;11.70;;;4.55;;
1390;SDS011;690;51.454;7.194;2023-01-31T00:04:04;22.25;;;4.80;;
1390;SDS011;690;51.454;7.194;2023-01-31T00:06:33;12.73;;;4.78;;
1390;SDS011;690;51.454;7.194;2023-01-31T00:09:03;13.90;;;4.57;;
1390;SDS011;690;51.454;7.194;2023-01-31T00:11:31;26.65;;;6.28;;
1390;SDS011;690;51.454;7.194;2023-01-31T00:13:58;20.52;;;5.05;;
1390;SDS011;690;51.454;7.194;2023-01-31T00:16:27;18.48;;;5.55;;
1390;SDS011;690;51.454;7.194;2023-01-31T00:18:54;22.33;;;5.40;;
1390;SDS011;690;51.454;7.194;2023-01-31T00:21:23;15.20;;;5.68;;
1390;SDS011;690;51.454;7.194;2023-01-31T00:23:51;16.75;;;5.43;;
1390;SDS011;690;51.454;7.194;2023-01-31T00:26:19;17.45;;;5.20;;
1390;SDS011;690;51.454;7.194;2023-01-31T00:28:48;23.42;;;6.00;;
1390;SDS011;690;51.454;7.194;2023-01-31T00:31:16;24.13;;;5.60;;
1390;SDS011;690;51.454;7.194;2023-01-31T00:33:44;18.70;;;5.40;;
1390;SDS011;690;51.454;7.194;2023-01-31T00:36:14;20.30;;;5.18;;
1390;SDS011;690;51.454;7.194;2023-01-31T00:38:46;17.85;;;5.20;;
1390;SDS011;690;51.454;7.194;2023-01-31T00:41:13;20.45;;;4.93;;
1390;SDS011;690;51.454;7.194;2023-01-31T00:43:40;17.90;;;4.55;;
1390;SDS011;690;51.454;7.194;2023-01-31T00:46:07;18.88;;;6.10;;
1390;SDS011;690;51.454;7.194;2023-01-31T00:48:34;17.70;;;5.10;;
1390;SDS011;690;51.454;7.194;2023-01-31T00:51:01;21.67;;;6.00;;
1390;SDS011;690;51.454;7.194;2023-01-31T00:53:28;9.77;;;4.20;;
1390;SDS011;690;51.454;7.194;2023-01-31T00:56:00;28.67;;;6.60;;
1390;SDS011;690;51.454;7.194;2023-01-31T00:58:28;20.63;;;5.60;;
1390;SDS011;690;51.454;7.194;2023-01-31T01:00:55;13.40;;;4.47;;
1390;SDS011;690;51.454;7.194;2023-01-31T01:03:22;17.45;;;5.40;;
1390;SDS011;690;51.454;7.194;2023-01-31T01:05:48;16.17;;;5.55;;
1390;SDS011;690;51.454;7.194;2023-01-31T01:08:15;33.22;;;5.97;;
1390;SDS011;690;51.454;7.194;2023-01-31T01:10:45;26.08;;;5.32;;
1390;SDS011;690;51.454;7.194;2023-01-31T01:13:14;20.70;;;6.00;;
1390;SDS011;690;51.454;7.194;2023-01-31T01:15:40;13.70;;;4.20;;
1390;SDS011;690;51.454;7.194;2023-01-31T01:18:07;16.40;;;6.50;;
1390;SDS011;690;51.454;7.194;2023-01-31T01:20:34;10.57;;;4.72;;
1390;SDS011;690;51.454;7.194;2023-01-31T01:23:01;19.17;;;6.22;;
1390;SDS011;690;51.454;7.194;2023-01-31T01:25:28;12.55;;;4.68;;
1390;SDS011;690;51.454;7.194;2023-01-31T01:27:55;20.33;;;5.38;;
1390;SDS011;690;51.454;7.194;2023-01-31T01:30:23;11.45;;;4.13;;
1390;SDS011;690;51.454;7.194;2023-01-31T01:32:50;13.90;;;4.97;;
1390;SDS011;690;51.454;7.194;2023-01-31T01:35:20;13.88;;;4.25;;
1390;SDS011;690;51.454;7.194;2023-01-31T01:37:46;17.77;;;4.75;;
1390;SDS011;690;51.454;7.194;2023-01-31T01:40:13;23.67;;;4.90;;
1390;SDS011;690;51.454;7.194;2023-01-31T01:42:40;26.40;;;5.00;;
1390;SDS011;690;51.454;7.194;2023-01-31T01:45:10;18.38;;;5.00;;
1390;SDS011;690;51.454;7.194;2023-01-31T01:47:43;17.65;;;4.95;;
1390;SDS011;690;51.454;7.194;2023-01-31T01:50:15;12.77;;;3.90;;
1390;SDS011;690;51.454;7.194;2023-01-31T01:52:48;19.52;;;4.38;;
1390;SDS011;690;51.454;7.194;2023-01-31T01:55:19;17.77;;;4.25;;
1390;SDS011;690;51.454;7.194;2023-01-31T01:57:49;14.10;;;5.25;;
1390;SDS011;690;51.454;7.194;2023-01-31T02:00:20;16.83;;;4.75;;
1390;SDS011;690;51.454;7.194;2023-01-31T02:02:51;20.10;;;4.90;;
1390;SDS011;690;51.454;7.194;2023-01-31T02:05:21;15.30;;;5.32;;
1390;SDS011;690;51.454;7.194;2023-01-31T02:07:53;15.55;;;4.47;;
1390;SDS011;690;51.454;7.194;2023-01-31T02:10:22;14.43;;;5.13;;
1390;SDS011;690;51.454;7.194;2023-01-31T02:12:51;26.00;;;5.25;;
1390;SDS011;690;51.454;7.194;2023-01-31T02:15:19;14.77;;;5.10;;
1390;SDS011;690;51.454;7.194;2023-01-31T02:17:47;14.38;;;5.35;;
1390;SDS011;690;51.454;7.194;2023-01-31T02:20:22;15.73;;;5.00;;
1390;SDS011;690;51.454;7.194;2023-01-31T02:23:13;26.95;;;6.95;;
1390;SDS011;690;51.454;7.194;2023-01-31T02:25:55;16.45;;;4.80;;
1390;SDS011;690;51.454;7.194;2023-01-31T02:28:48;19.30;;;5.10;;
1390;SDS011;690;51.454;7.194;2023-01-31T02:31:45;14.23;;;4.82;;
1390;SDS011;690;51.454;7.194;2023-01-31T02:34:33;16.80;;;4.28;;
1390;SDS011;690;51.454;7.194;2023-01-31T02:37:09;13.57;;;5.25;;
1390;SDS011;690;51.454;7.194;2023-01-31T02:39:45;27.63;;;4.70;;
1390;SDS011;690;51.454;7.194;2023-01-31T02:42:22;15.52;;;4.93;;
1390;SDS011;690;51.454;7.194;2023-01-31T02:44:58;13.65;;;3.90;;
1390;SDS011;690;51.454;7.194;2023-01-31T02:47:32;14.23;;;4.07;;
1390;SDS011;690;51.454;7.194;2023-01-31T02:50:10;14.25;;;4.13;;
1390;SDS011;690;51.454;7.194;2023-01-31T02:52:41;19.63;;;3.85;;
1390;SDS011;690;51.454;7.194;2023-01-31T02:55:14;15.73;;;4.35;;
1390;SDS011;690;51.454;7.194;2023-01-31T02:58:02;9.60;;;4.00;;
1390;SDS011;690;51.454;7.194;2023-01-31T03:00:33;18.40;;;4.00;;
1390;SDS011;690;51.454;7.194;2023-01-31T03:03:03;15.52;;;6.10;;
1390;SDS011;690;51.454;7.194;2023-01-31T03:05:33;13.20;;;4.85;;
1390;SDS011;690;51.454;7.194;2023-01-31T03:08:01;14.25;;;4.60;;
1390;SDS011;690;51.454;7.194;2023-01-31T03:10:45;17.55;;;4.63;;
1390;SDS011;690;51.454;7.194;2023-01-31T03:13:26;22.17;;;6.22;;
1390;SDS011;690;51.454;7.194;2023-01-31T03:16:02;12.00;;;4.18;;
1390;SDS011;690;51.454;7.194;2023-01-31T03:18:59;14.40;;;4.25;;
1390;SDS011;690;51.454;7.194;2023-01-31T03:21:32;17.70;;;5.13;;
1390;SDS011;690;51.454;7.194;2023-01-31T03:24:02;20.30;;;5.53;;
1390;SDS011;690;51.454;7.194;2023-01-31T03:26:31;13.57;;;4.35;;
1390;SDS011;690;51.454;7.194;2023-01-31T03:29:00;16.60;;;4.70;;
1390;SDS011;690;51.454;7.194;2023-01-31T03:31:29;15.82;;;4.43;;
1390;SDS011;690;51.454;7.194;2023-01-31T03:34:01;22.25;;;5.68;;
1390;SDS011;690;51.454;7.194;2023-01-31T03:36:32;13.38;;;4.47;;
1390;SDS011;690;51.454;7.194;2023-01-31T03:39:09;15.95;;;5.15;;
1390;SDS011;690;51.454;7.194;2023-01-31T03:41:43;18.95;;;3.90;;
1390;SDS011;690;51.454;7.194;2023-01-31T03:44:18;14.27;;;4.75;;
1390;SDS011;690;51.454;7.194;2023-01-31T03:46:52;21.15;;;6.90;;
1390;SDS011;690;51.454;7.194;2023-01-31T03:49:23;23.90;;;5.32;;
1390;SDS011;690;51.454;7.194;2023-01-31T03:51:56;28.70;;;5.90;;
1390;SDS011;690;51.454;7.194;2023-01-31T03:54:28;12.90;;;4.65;;
1390;SDS011;690;51.454;7.194;2023-01-31T03:56:59;17.48;;;4.75;;
1390;SDS011;690;51.454;7.194;2023-01-31T03:59:32;11.02;;;4.45;;
1390;SDS011;690;51.454;7.194;2023-01-31T04:02:03;22.30;;;4.70;;
1390;SDS011;690;51.454;7.194;2023-01-31T04:04:34;13.93;;;4.72;;
1390;SDS011;690;51.454;7.194;2023-01-31T04:07:05;14.48;;;5.35;;
1390;SDS011;690;51.454;7.194;2023-01-31T04:09:32;13.65;;;4.32;;
1390;SDS011;690;51.454;7.194;2023-01-31T04:11:59;14.38;;;5.07;;
1390;SDS011;690;51.454;7.194;2023-01-31T04:14:27;14.85;;;5.20;;
1390;SDS011;690;51.454;7.194;2023-01-31T04:16:54;16.35;;;4.55;;
1390;SDS011;690;51.454;7.194;2023-01-31T04:19:21;16.83;;;4.55;;
1390;SDS011;690;51.454;7.194;2023-01-31T04:21:47;19.95;;;4.93;;
1390;SDS011;690;51.454;7.194;2023-01-31T04:24:16;14.23;;;4.60;;
1390;SDS011;690;51.454;7.194;2023-01-31T04:26:42;22.15;;;4.57;;
1390;SDS011;690;51.454;7.194;2023-01-31T04:29:09;13.23;;;4.88;;
1390;SDS011;690;51.454;7.194;2023-01-31T04:31:36;24.30;;;5.82;;
1390;SDS011;690;51.454;7.194;2023-01-31T04:34:03;23.05;;;6.05;;
1390;SDS011;690;51.454;7.194;2023-01-31T04:36:30;14.30;;;5.20;;
1390;SDS011;690;51.454;7.194;2023-01-31T04:38:57;21.55;;;5.20;;
1390;SDS011;690;51.454;7.194;2023-01-31T04:41:27;14.48;;;5.35;;
1390;SDS011;690;51.454;7.194;2023-01-31T04:43:53;18.45;;;6.05;;
1390;SDS011;690;51.454;7.194;2023-01-31T04:46:20;22.55;;;5.38;;
1390;SDS011;690;51.454;7.194;2023-01-31T04:48:47;13.85;;;5.18;;
1390;SDS011;690;51.454;7.194;2023-01-31T04:51:14;17.95;;;5.50;;
1390;SDS011;690;51.454;7.194;2023-01-31T04:53:42;20.63;;;6.45;;
1390;SDS011;690;51.454;7.194;2023-01-31T04:56:09;19.92;;;6.53;;
1390;SDS011;690;51.454;7.194;2023-01-31T04:58:37;23.20;;;6.00;;
1390;SDS011;690;51.454;7.194;2023-01-31T05:01:05;17.60;;;6.22;;
1390;SDS011;690;51.454;7.194;2023-01-31T05:03:33;15.27;;;5.97;;
1390;SDS011;690;51.454;7.194;2023-01-31T05:05:59;20.13;;;5.90;;
1390;SDS011;690;51.454;7.194;2023-01-31T05:08:26;20.80;;;6.40;;
1390;SDS011;690;51.454;7.194;2023-01-31T05:10:57;18.30;;;8.75;;
1390;SDS011;690;51.454;7.194;2023-01-31T05:13:24;23.40;;;7.07;;
1390;SDS011;690;51.454;7.194;2023-01-31T05:15:52;25.60;;;7.55;;
1390;SDS011;690;51.454;7.194;2023-01-31T05:18:19;16.25;;;5.93;;
1390;SDS011;690;51.454;7.194;2023-01-31T05:20:46;19.33;;;6.93;;
1390;SDS011;690;51.454;7.194;2023-01-31T05:23:14;20.77;;;6.75;;
1390;SDS011;690;51.454;7.194;2023-01-31T05:25:42;22.05;;;6.80;;
1390;SDS011;690;51.454;7.194;2023-01-31T05:28:09;20.23;;;7.13;;
1390;SDS011;690;51.454;7.194;2023-01-31T05:30:36;19.67;;;7.70;;
1390;SDS011;690;51.454;7.194;2023-01-31T05:33:05;17.15;;;6.00;;
1390;SDS011;690;51.454;7.194;2023-01-31T05:35:32;24.47;;;7.87;;
1390;SDS011;690;51.454;7.194;2023-01-31T05:37:59;26.58;;;7.75;;
1390;SDS011;690;51.454;7.194;2023-01-31T05:40:26;19.67;;;7.75;;
1390;SDS011;690;51.454;7.194;2023-01-31T05:42:53;18.58;;;8.18;;
1390;SDS011;690;51.454;7.194;2023-01-31T05:45:21;19.52;;;7.22;;
1390;SDS011;690;51.454;7.194;2023-01-31T05:47:48;18.45;;;6.95;;
1390;SDS011;690;51.454;7.194;2023-01-31T05:50:16;20.80;;;7.72;;
1390;SDS011;690;51.454;7.194;2023-01-31T05:52:48;26.02;;;9.07;;
1390;SDS011;690;51.454;7.194;2023-01-31T05:55:16;25.83;;;8.02;;
1390;SDS011;690;51.454;7.194;2023-01-31T05:57:43;21.48;;;7.38;;
1390;SDS011;690;51.454;7.194;2023-01-31T06:00:10;17.10;;;7.93;;
1390;SDS011;690;51.454;7.194;2023-01-31T06:02:38;16.25;;;7.82;;
1390;SDS011;690;51.454;7.194;2023-01-31T06:05:06;20.90;;;8.10;;
1390;SDS011;690;51.454;7.194;2023-01-31T06:07:34;20.85;;;8.48;;
1390;SDS011;690;51.454;7.194;2023-01-31T06:10:02;22.77;;;8.40;;
1390;SDS011;690;51.454;7.194;2023-01-31T06:12:29;18.02;;;8.02;;
1390;SDS011;690;51.454;7.194;2023-01-31T06:14:56;14.33;;;7.10;;
1390;SDS011;690;51.454;7.194;2023-01-31T06:17:23;21.77;;;7.40;;
1390;SDS011;690;51.454;7.194;2023-01-31T06:19:50;18.42;;;7.82;;
1390;SDS011;690;51.454;7.194;2023-01-31T06:22:17;20.70;;;7.90;;
1390;SDS011;690;51.454;7.194;2023-01-31T06:24:45;20.25;;;7.50;;
1390;SDS011;690;51.454;7.194;2023-01-31T06:27:12;21.00;;;8.73;;
1390;SDS011;690;51.454;7.194;2023-01-31T06:29:39;18.02;;;7.97;;
1390;SDS011;690;51.454;7.194;2023-01-31T06:32:06;19.33;;;8.93;;
1390;SDS011;690;51.454;7.194;2023-01-31T06:34:33;23.10;;;7.75;;
1390;SDS011;690;51.454;7.194;2023-01-31T06:36:59;14.63;;;7.63;;
1390;SDS011;690;51.454;7.194;2023-01-31T06:39:26;21.50;;;8.20;;
1390;SDS011;690;51.454;7.194;2023-01-31T06:41:54;21.85;;;6.75;;
1390;SDS011;690;51.454;7.194;2023-01-31T06:44:21;17.80;;;7.40;;
1390;SDS011;690;51.454;7.194;2023-01-31T06:46:48;18.83;;;7.57;;
1390;SDS011;690;51.454;7.194;2023-01-31T06:49:15;19.48;;;7.60;;
1390;SDS011;690;51.454;7.194;2023-01-31T06:51:41;13.30;;;6.90;;
1390;SDS011;690;51.454;7.194;2023-01-31T06:54:08;17.80;;;8.27;;
1390;SDS011;690;51.454;7.194;2023-01-31T06:56:35;21.97;;;7.73;;
1390;SDS011;690;51.454;7.194;2023-01-31T06:59:03;33.78;;;7.75;;
1390;SDS011;690;51.454;7.194;2023-01-31T07:01:30;16.00;;;8.00;;
1390;SDS011;690;51.454;7.194;2023-01-31T07:03:59;21.30;;;7.80;;
1390;SDS011;690;51.454;7.194;2023-01-31T07:06:25;21.70;;;8.23;;
1390;SDS011;690;51.454;7.194;2023-01-31T07:08:52;18.17;;;7.67;;
1390;SDS011;690;51.454;7.194;2023-01-31T07:11:19;22.97;;;8.20;;
1390;SDS011;690;51.454;7.194;2023-01-31T07:13:46;27.10;;;9.43;;
1390;SDS011;690;51.454;7.194;2023-01-31T07:16:16;22.43;;;8.27;;
1390;SDS011;690;51.454;7.194;2023-01-31T07:18:44;19.53;;;9.17;;
1390;SDS011;690;51.454;7.194;2023-01-31T07:21:10;22.33;;;8.80;;
1390;SDS011;690;51.454;7.194;2023-01-31T07:23:37;27.50;;;9.52;;
1390;SDS011;690;51.454;7.194;2023-01-31T07:26:05;20.95;;;9.77;;
1390;SDS011;690;51.454;7.194;2023-01-31T07:28:32;54.60;;;12.23;;
1390;SDS011;690;51.454;7.194;2023-01-31T07:31:05;24.97;;;8.60;;
1390;SDS011;690;51.454;7.194;2023-01-31T07:33:36;21.52;;;9.18;;
1390;SDS011;690;51.454;7.194;2023-01-31T07:36:03;22.07;;;8.53;;
1390;SDS011;690;51.454;7.194;2023-01-31T07:38:32;25.57;;;9.00;;
1390;SDS011;690;51.454;7.194;2023-01-31T07:40:59;25.33;;;8.93;;
1390;SDS011;690;51.454;7.194;2023-01-31T07:43:27;21.70;;;8.33;;
1390;SDS011;690;51.454;7.194;2023-01-31T07:45:55;21.50;;;8.83;;
1390;SDS011;690;51.454;7.194;2023-01-31T07:48:22;16.97;;;7.43;;
1390;SDS011;690;51.454;7.194;2023-01-31T07:50:51;24.93;;;9.13;;
1390;SDS011;690;51.454;7.194;2023-01-31T07:53:19;26.35;;;9.10;;
1390;SDS011;690;51.454;7.194;2023-01-31T07:55:46;26.50;;;8.00;;
1390;SDS011;690;51.454;7.194;2023-01-31T07:58:12;18.20;;;6.80;;
1390;SDS011;690;51.454;7.194;2023-01-31T08:00:39;22.33;;;8.00;;
1390;SDS011;690;51.454;7.194;2023-01-31T08:03:25;20.17;;;7.60;;
1390;SDS011;690;51.454;7.194;2023-01-31T08:06:02;19.60;;;7.20;;
1390;SDS011;690;51.454;7.194;2023-01-31T08:08:32;24.90;;;9.40;;
1390;SDS011;690;51.454;7.194;2023-01-31T08:11:00;13.97;;;6.80;;
1390;SDS011;690;51.454;7.194;2023-01-31T08:13:29;16.60;;;7.97;;
1390;SDS011;690;51.454;7.194;2023-01-31T08:15:56;21.20;;;8.77;;
1390;SDS011;690;51.454;7.194;2023-01-31T08:18:23;21.10;;;7.80;;
1390;SDS011;690;51.454;7.194;2023-01-31T08:20:50;22.33;;;6.70;;
1390;SDS011;690;51.454;7.194;2023-01-31T08:23:18;15.03;;;7.43;;
1390;SDS011;690;51.454;7.194;2023-01-31T08:25:45;18.20;;;8.20;;
1390;SDS011;690;51.454;7.194;2023-01-31T08:28:12;16.87;;;7.97;;
1390;SDS011;690;51.454;7.194;2023-01-31T08:30:39;17.67;;;6.50;;
1390;SDS011;690;51.454;7.194;2023-01-31T08:33:06;27.77;;;7.77;;
1390;SDS011;690;51.454;7.194;2023-01-31T08:35:34;15.23;;;6.63;;
1390;SDS011;690;51.454;7.194;2023-01-31T08:38:01;16.07;;;7.07;;
1390;SDS011;690;51.454;7.194;2023-01-31T08:40:30;18.80;;;6.70;;
1390;SDS011;690;51.454;7.194;2023-01-31T08:42:57;24.97;;;6.77;;
1390;SDS011;690;51.454;7.194;2023-01-31T08:45:25;23.23;;;9.03;;
1390;SDS011;690;51.454;7.194;2023-01-31T08:47:52;15.03;;;6.40;;
1390;SDS011;690;51.454;7.194;2023-01-31T08:50:20;17.40;;;6.50;;
1390;SDS011;690;51.454;7.194;2023-01-31T08:52:50;17.70;;;6.63;;
1390;SDS011;690;51.454;7.194;2023-01-31T08:55:18;18.63;;;6.90;;
1390;SDS011;690;51.454;7.194;2023-01-31T08:57:46;15.50;;;6.30;;
1390;SDS011;690;51.454;7.194;2023-01-31T09:00:14;14.13;;;5.67;;
1390;SDS011;690;51.454;7.194;2023-01-31T09:02:42;14.63;;;5.53;;
1390;SDS011;690;51.454;7.194;2023-01-31T09:05:10;20.37;;;6.57;;
1390;SDS011;690;51.454;7.194;2023-01-31T09:07:37;11.73;;;5.43;;
1390;SDS011;690;51.454;7.194;2023-01-31T09:10:04;11.40;;;5.77;;
1390;SDS011;690;51.454;7.194;2023-01-31T09:12:32;14.80;;;5.10;;
1390;SDS011;690;51.454;7.194;2023-01-31T09:15:00;17.38;;;6.50;;
1390;SDS011;690;51.454;7.194;2023-01-31T09:17:27;16.83;;;6.30;;
1390;SDS011;690;51.454;7.194;2023-01-31T09:19:54;19.13;;;7.10;;
1390;SDS011;690;51.454;7.194;2023-01-31T09:22:21;10.37;;;5.37;;
1390;SDS011;690;51.454;7.194;2023-01-31T09:24:48;16.53;;;5.63;;
1390;SDS011;690;51.454;7.194;2023-01-31T09:27:15;9.53;;;4.80;;
1390;SDS011;690;51.454;7.194;2023-01-31T09:29:42;18.13;;;6.87;;
1390;SDS011;690;51.454;7.194;2023-01-31T09:32:10;17.57;;;7.57;;
1390;SDS011;690;51.454;7.194;2023-01-31T09:34:36;17.43;;;6.03;;
1390;SDS011;690;51.454;7.194;2023-01-31T09:37:04;13.80;;;5.83;;
1390;SDS011;690;51.454;7.194;2023-01-31T09:39:30;11.03;;;6.00;;
1390;SDS011;690;51.454;7.194;2023-01-31T09:41:58;20.97;;;5.70;;
1390;SDS011;690;51.454;7.194;2023-01-31T09:44:36;18.30;;;5.87;;
1390;SDS011;690;51.454;7.194;2023-01-31T09:47:07;12.07;;;5.03;;
1390;SDS011;690;51.454;7.194;2023-01-31T09:49:41;13.47;;;5.23;;
1390;SDS011;690;51.454;7.194;2023-01-31T09:52:12;20.33;;;5.63;;
1390;SDS011;690;51.454;7.194;2023-01-31T09:54:39;20.00;;;5.40;;
1390;SDS011;690;51.454;7.194;2023-01-31T09:57:11;14.80;;;5.93;;
1390;SDS011;690;51.454;7.194;2023-01-31T09:59:46;13.57;;;4.80;;
1390;SDS011;690;51.454;7.194;2023-01-31T10:02:35;21.77;;;7.90;;
1390;SDS011;690;51.454;7.194;2023-01-31T10:05:18;13.83;;;4.83;;
1390;SDS011;690;51.454;7.194;2023-01-31T10:07:56;14.43;;;4.40;;
1390;SDS011;690;51.454;7.194;2023-01-31T10:10:32;11.60;;;4.97;;
1390;SDS011;690;51.454;7.194;2023-01-31T10:13:04;15.13;;;4.47;;
1390;SDS011;690;51.454;7.194;2023-01-31T10:15:37;15.70;;;5.90;;
1390;SDS011;690;51.454;7.194;2023-01-31T10:18:11;18.00;;;5.87;;
1390;SDS011;690;51.454;7.194;2023-01-31T10:20:45;16.03;;;5.17;;
1390;SDS011;690;51.454;7.194;2023-01-31T10:23:16;17.87;;;5.70;;
1390;SDS011;690;51.454;7.194;2023-01-31T10:25:50;15.20;;;4.90;;
1390;SDS011;690;51.454;7.194;2023-01-31T10:28:21;12.73;;;5.07;;
1390;SDS011;690;51.454;7.194;2023-01-31T10:30:54;13.77;;;4.77;;
1390;SDS011;690;51.454;7.194;2023-01-31T10:33:27;13.50;;;5.10;;
1390;SDS011;690;51.454;7.194;2023-01-31T10:36:01;17.20;;;5.60;;
1390;SDS011;690;51.454;7.194;2023-01-31T10:38:31;14.67;;;5.73;;
1390;SDS011;690;51.454;7.194;2023-01-31T10:41:08;13.13;;;4.90;;
1390;SDS011;690;51.454;7.194;2023-01-31T10:43:42;16.93;;;6.00;;
1390;SDS011;690;51.454;7.194;2023-01-31T10:46:12;16.77;;;4.73;;
1390;SDS011;690;51.454;7.194;2023-01-31T10:48:42;16.87;;;5.87;;
1390;SDS011;690;51.454;7.194;2023-01-31T10:51:14;14.33;;;5.40;;
1390;SDS011;690;51.454;7.194;2023-01-31T10:53:57;12.50;;;5.90;;
1390;SDS011;690;51.454;7.194;2023-01-31T10:56:37;15.63;;;5.73;;
1390;SDS011;690;51.454;7.194;2023-01-31T10:59:10;10.60;;;5.50;;
1390;SDS011;690;51.454;7.194;2023-01-31T11:01:41;11.73;;;4.90;;
1390;SDS011;690;51.454;7.194;2023-01-31T11:04:23;16.70;;;5.40;;
1390;SDS011;690;51.454;7.194;2023-01-31T11:06:53;13.33;;;5.50;;
1390;SDS011;690;51.454;7.194;2023-01-31T11:09:20;20.80;;;6.97;;
1390;SDS011;690;51.454;7.194;2023-01-31T11:11:52;12.00;;;5.80;;
1390;SDS011;690;51.454;7.194;2023-01-31T11:14:21;15.43;;;6.70;;
1390;SDS011;690;51.454;7.194;2023-01-31T11:16:48;10.70;;;5.90;;
1390;SDS011;690;51.454;7.194;2023-01-31T11:19:22;16.90;;;5.53;;
1390;SDS011;690;51.454;7.194;2023-01-31T11:21:55;11.70;;;5.73;;
1390;SDS011;690;51.454;7.194;2023-01-31T11:24:23;21.13;;;6.60;;
1390;SDS011;690;51.454;7.194;2023-01-31T11:26:52;13.83;;;6.50;;
1390;SDS011;690;51.454;7.194;2023-01-31T11:29:24;17.07;;;6.17;;
1390;SDS011;690;51.454;7.194;2023-01-31T11:31:54;13.87;;;7.03;;
1390;SDS011;690;51.454;7.194;2023-01-31T11:34:25;15.40;;;5.80;;
1390;SDS011;690;51.454;7.194;2023-01-31T11:37:02;8.80;;;5.60;;
1390;SDS011;690;51.454;7.194;2023-01-31T11:39:32;16.03;;;6.30;;
1390;SDS011;690;51.454;7.194;2023-01-31T11:42:06;14.33;;;6.80;;
1390;SDS011;690;51.454;7.194;2023-01-31T11:44:36;13.73;;;7.00;;
1390;SDS011;690;51.454;7.194;2023-01-31T11:47:24;15.43;;;6.27;;
1390;SDS011;690;51.454;7.194;2023-01-31T11:49:59;14.23;;;6.60;;
1390;SDS011;690;51.454;7.194;2023-01-31T11:52:28;16.13;;;7.07;;
1390;SDS011;690;51.454;7.194;2023-01-31T11:54:56;13.70;;;6.67;;
1390;SDS011;690;51.454;7.194;2023-01-31T11:57:27;15.57;;;7.17;;
1390;SDS011;690;51.454;7.194;2023-01-31T11:59:57;19.97;;;7.60;;
1390;SDS011;690;51.454;7.194;2023-01-31T12:02:29;14.60;;;7.53;;
1390;SDS011;690;51.454;7.194;2023-01-31T12:05:01;11.33;;;7.67;;
1390;SDS011;690;51.454;7.194;2023-01-31T12:07:39;14.53;;;7.60;;
1390;SDS011;690;51.454;7.194;2023-01-31T12:10:23;14.90;;;7.60;;
1390;SDS011;690;51.454;7.194;2023-01-31T12:12:57;19.30;;;8.30;;
1390;SDS011;690;51.454;7.194;2023-01-31T12:15:27;16.60;;;8.30;;
1390;SDS011;690;51.454;7.194;2023-01-31T12:17:56;16.50;;;8.07;;
1390;SDS011;690;51.454;7.194;2023-01-31T12:20:30;19.80;;;9.20;;
1390;SDS011;690;51.454;7.194;2023-01-31T12:23:06;17.93;;;9.90;;
1390;SDS011;690;51.454;7.194;2023-01-31T12:25:44;21.70;;;10.50;;
1390;SDS011;690;51.454;7.194;2023-01-31T12:28:23;22.50;;;9.50;;
1390;SDS011;690;51.454;7.194;2023-01-31T12:31:14;19.03;;;10.57;;
1390;SDS011;690;51.454;7.194;2023-01-31T12:34:15;18.43;;;11.00;;
1390;SDS011;690;51.454;7.194;2023-01-31T12:36:58;21.27;;;12.20;;
1390;SDS011;690;51.454;7.194;2023-01-31T12:39:38;22.10;;;11.93;;
1390;SDS011;690;51.454;7.194;2023-01-31T12:45:10;18.63;;;10.23;;
1390;SDS011;690;51.454;7.194;2023-01-31T12:47:53;14.10;;;10.90;;
1390;SDS011;690;51.454;7.194;2023-01-31T12:50:43;19.43;;;12.40;;
1390;SDS011;690;51.454;7.194;2023-01-31T12:56:22;18.60;;;12.23;;
1390;SDS011;690;51.454;7.194;2023-01-31T12:59:02;18.80;;;13.57;;
1390;SDS011;690;51.454;7.194;2023-01-31T13:01:36;26.33;;;12.77;;
1390;SDS011;690;51.454;7.194;2023-01-31T13:04:17;24.93;;;12.97;;
1390;SDS011;690;51.454;7.194;2023-01-31T13:06:55;23.73;;;13.67;;
1390;SDS011;690;51.454;7.194;2023-01-31T13:09:26;18.07;;;12.83;;
1390;SDS011;690;51.454;7.194;2023-01-31T13:11:56;19.03;;;11.43;;
1390;SDS011;690;51.454;7.194;2023-01-31T13:14:28;23.33;;;13.70;;
1390;SDS011;690;51.454;7.194;2023-01-31T13:16:58;21.97;;;12.67;;
1390;SDS011;690;51.454;7.194;2023-01-31T13:19:28;24.00;;;13.33;;
1390;SDS011;690;51.454;7.194;2023-01-31T13:22:01;20.80;;;13.10;;
1390;SDS011;690;51.454;7.194;2023-01-31T13:24:35;20.43;;;13.43;;
1390;SDS011;690;51.454;7.194;2023-01-31T13:27:07;22.97;;;13.97;;
1390;SDS011;690;51.454;7.194;2023-01-31T13:29:42;18.00;;;13.13;;
1390;SDS011;690;51.454;7.194;2023-01-31T13:32:13;21.20;;;14.20;;
1390;SDS011;690;51.454;7.194;2023-01-31T13:34:45;19.80;;;14.30;;
1390;SDS011;690;51.454;7.194;2023-01-31T13:37:17;15.70;;;13.33;;
1390;SDS011;690;51.454;7.194;2023-01-31T13:39:47;25.10;;;14.43;;
1390;SDS011;690;51.454;7.194;2023-01-31T13:42:17;18.87;;;14.30;;
1390;SDS011;690;51.454;7.194;2023-01-31T13:44:45;20.50;;;13.53;;
1390;SDS011;690;51.454;7.194;2023-01-31T13:47:13;20.57;;;14.67;;
1390;SDS011;690;51.454;7.194;2023-01-31T13:49:46;21.50;;;15.17;;
1390;SDS011;690;51.454;7.194;2023-01-31T13:52:18;16.90;;;13.80;;
1390;SDS011;690;51.454;7.194;2023-01-31T13:54:50;23.87;;;14.53;;
1390;SDS011;690;51.454;7.194;2023-01-31T13:57:22;19.07;;;13.70;;
1390;SDS011;690;51.454;7.194;2023-01-31T13:59:51;27.43;;;15.00;;
1390;SDS011;690;51.454;7.194;2023-01-31T14:02:21;18.73;;;14.53;;
1390;SDS011;690;51.454;7.194;2023-01-31T14:04:48;18.67;;;13.93;;
1390;SDS011;690;51.454;7.194;2023-01-31T14:07:19;21.40;;;13.87;;
1390;SDS011;690;51.454;7.194;2023-01-31T14:16:04;14.90;;;12.83;;
1390;SDS011;690;51.454;7.194;2023-01-31T14:19:07;17.67;;;13.13;;
1390;SDS011;690;51.454;7.194;2023-01-31T14:22:19;16.60;;;13.30;;
1390;SDS011;690;51.454;7.194;2023-01-31T14:24:54;21.20;;;16.03;;
1390;SDS011;690;51.454;7.194;2023-01-31T14:27:25;20.63;;;13.63;;
1390;SDS011;690;51.454;7.194;2023-01-31T14:29:56;16.67;;;13.47;;
1390;SDS011;690;51.454;7.194;2023-01-31T14:32:35;19.33;;;14.43;;
1390;SDS011;690;51.454;7.194;2023-01-31T14:35:08;21.60;;;14.33;;
1390;SDS011;690;51.454;7.194;2023-01-31T14:37:51;18.57;;;13.90;;
1390;SDS011;690;51.454;7.194;2023-01-31T14:40:26;20.13;;;14.53;;
1390;SDS011;690;51.454;7.194;2023-01-31T14:49:06;17.47;;;14.40;;
1390;SDS011;690;51.454;7.194;2023-01-31T14:51:50;18.17;;;14.00;;
1390;SDS011;690;51.454;7.194;2023-01-31T14:54:36;17.10;;;15.33;;
1390;SDS011;690;51.454;7.194;2023-01-31T14:57:16;18.77;;;13.33;;
1390;SDS011;690;51.454;7.194;2023-01-31T14:59:46;18.63;;;15.43;;
1390;SDS011;690;51.454;7.194;2023-01-31T15:02:22;17.40;;;14.57;;
1390;SDS011;690;51.454;7.194;2023-01-31T15:07:31;16.63;;;14.27;;
1390;SDS011;690;51.454;7.194;2023-01-31T15:09:59;20.97;;;15.40;;
1390;SDS011;690;51.454;7.194;2023-01-31T15:15:22;19.50;;;15.50;;
1390;SDS011;690;51.454;7.194;2023-01-31T15:17:53;18.20;;;15.97;;
1390;SDS011;690;51.454;7.194;2023-01-31T15:20:24;23.50;;;16.30;;
1390;SDS011;690;51.454;7.194;2023-01-31T15:22:57;23.93;;;15.17;;
1390;SDS011;690;51.454;7.194;2023-01-31T15:25:31;21.80;;;16.97;;
1390;SDS011;690;51.454;7.194;2023-01-31T15:28:00;23.40;;;17.57;;
1390;SDS011;690;51.454;7.194;2023-01-31T15:30:31;23.03;;;18.00;;
1390;SDS011;690;51.454;7.194;2023-01-31T15:33:01;23.53;;;17.80;;
1390;SDS011;690;51.454;7.194;2023-01-31T15:35:35;26.20;;;19.30;;
1390;SDS011;690;51.454;7.194;2023-01-31T15:38:11;25.73;;;20.73;;
1390;SDS011;690;51.454;7.194;2023-01-31T15:40:46;28.43;;;20.13;;
1390;SDS011;690;51.454;7.194;2023-01-31T15:43:17;29.50;;;20.67;;
1390;SDS011;690;51.454;7.194;2023-01-31T15:45:48;30.83;;;22.13;;
1390;SDS011;690;51.454;7.194;2023-01-31T15:48:16;28.33;;;22.70;;
1390;SDS011;690;51.454;7.194;2023-01-31T15:50:50;36.23;;;24.90;;
1390;SDS011;690;51.454;7.194;2023-01-31T15:53:17;32.20;;;22.50;;
1390;SDS011;690;51.454;7.194;2023-01-31T15:55:46;34.23;;;22.83;;
1390;SDS011;690;51.454;7.194;2023-01-31T15:58:16;31.57;;;23.53;;
1390;SDS011;690;51.454;7.194;2023-01-31T16:00:47;34.37;;;24.40;;